createdAt,value
2019-05-12T00:00:07.969Z,85.90
2019-05-12T00:02:53.022Z,86.90
2019-05-12T00:05:38.394Z,87.00
2019-05-12T00:08:23.438Z,86.70
2019-05-12T00:11:08.986Z,86.90
2019-05-12T00:13:53.783Z,87.90
2019-05-12T00:16:38.676Z,88.00
2019-05-12T00:19:23.474Z,87.40
2019-05-12T00:22:08.285Z,88.40
2019-05-12T00:24:53.197Z,87.90
2019-05-12T00:27:38.778Z,88.40
2019-05-12T00:30:31.878Z,89.60
2019-05-12T00:33:18.047Z,88.60
2019-05-12T00:36:04.359Z,89.30
2019-05-12T00:38:49.082Z,89.20
2019-05-12T00:41:34.131Z,89.60
2019-05-12T00:44:18.879Z,89.30
2019-05-12T00:47:03.751Z,89.80
2019-05-12T00:49:50.330Z,89.10
2019-05-12T00:52:35.608Z,89.60
2019-05-12T00:55:20.904Z,90.00
2019-05-12T00:58:08.215Z,90.10
2019-05-12T01:00:53.050Z,90.00
2019-05-12T01:03:38.251Z,90.20
2019-05-12T01:06:23.258Z,90.40
2019-05-12T01:09:08.926Z,90.40
2019-05-12T01:11:53.985Z,90.20
2019-05-12T01:14:38.995Z,90.20
2019-05-12T01:17:23.784Z,90.30
2019-05-12T01:20:09.285Z,90.20
2019-05-12T01:22:54.464Z,90.40
2019-05-12T01:25:39.933Z,90.20
2019-05-12T01:28:27.687Z,90.40
2019-05-12T01:31:14.443Z,90.50
2019-05-12T01:33:59.413Z,90.60
2019-05-12T01:36:44.277Z,90.70
2019-05-12T01:39:29.110Z,90.70
2019-05-12T01:42:14.181Z,90.50
2019-05-12T01:44:59.137Z,90.70
2019-05-12T01:47:43.925Z,90.80
2019-05-12T01:50:28.704Z,90.90
2019-05-12T01:53:14.930Z,91.20
2019-05-12T01:56:00.130Z,91.10
2019-05-12T01:58:45.238Z,91.10
2019-05-12T02:01:30.322Z,90.80
2019-05-12T02:04:18.119Z,90.80
2019-05-12T02:07:08.224Z,90.70
2019-05-12T02:09:52.425Z,90.90
2019-05-12T02:12:38.362Z,91.20
2019-05-12T02:15:23.806Z,91.10
2019-05-12T02:18:09.313Z,91.00
2019-05-12T02:20:54.321Z,91.20
2019-05-12T02:23:39.382Z,91.00
2019-05-12T02:26:24.265Z,91.10
2019-05-12T02:29:08.989Z,91.20
2019-05-12T02:31:53.733Z,91.10
2019-05-12T02:34:38.487Z,91.10
2019-05-12T02:37:26.051Z,91.20
2019-05-12T02:40:10.981Z,91.10
2019-05-12T02:42:56.293Z,91.30
2019-05-12T02:45:44.487Z,91.40
2019-05-12T02:48:27.829Z,91.60
2019-05-12T02:51:15.537Z,91.80
2019-05-12T02:54:00.238Z,91.60
2019-05-12T02:56:46.350Z,91.30
2019-05-12T02:59:34.743Z,91.30
2019-05-12T03:02:24.431Z,91.10
2019-05-12T03:05:09.838Z,91.00
2019-05-12T03:07:56.553Z,90.90
2019-05-12T03:10:44.891Z,90.80
2019-05-12T03:13:29.812Z,90.70
2019-05-12T03:16:15.189Z,90.70
2019-05-12T03:19:00.498Z,90.80
2019-05-12T03:21:45.346Z,90.70
2019-05-12T03:24:30.157Z,90.60
2019-05-12T03:27:17.801Z,90.70
2019-05-12T03:30:08.469Z,90.70
2019-05-12T03:32:50.090Z,90.60
2019-05-12T03:35:41.637Z,90.70
2019-05-12T03:38:27.251Z,90.60
2019-05-12T03:41:08.764Z,90.70
2019-05-12T03:43:54.984Z,90.80
2019-05-12T03:46:39.954Z,90.80
2019-05-12T03:49:24.713Z,90.80
2019-05-12T03:52:09.710Z,90.70
2019-05-12T03:54:56.054Z,90.80
2019-05-12T03:57:44.848Z,90.80
2019-05-12T04:00:28.462Z,90.90
2019-05-12T04:03:15.374Z,91.00
2019-05-12T04:06:00.278Z,91.10
2019-05-12T04:08:45.775Z,91.00
2019-05-12T04:11:31.041Z,91.00
2019-05-12T04:14:15.777Z,91.10
2019-05-12T04:17:00.678Z,91.20
2019-05-12T04:19:45.585Z,91.20
2019-05-12T04:22:31.397Z,91.10
2019-05-12T04:25:16.418Z,91.00
2019-05-12T04:28:01.201Z,91.00
2019-05-12T04:30:48.045Z,91.00
2019-05-12T04:33:34.702Z,90.90
2019-05-12T04:36:19.657Z,90.80
2019-05-12T04:39:05.153Z,90.90
2019-05-12T04:41:49.906Z,90.70
2019-05-12T04:44:34.877Z,90.70
2019-05-12T04:47:20.040Z,90.70
2019-05-12T04:50:05.810Z,90.70
2019-05-12T04:52:54.626Z,90.60
2019-05-12T04:55:38.214Z,90.40
2019-05-12T04:58:25.519Z,90.30
2019-05-12T05:01:09.829Z,89.60
2019-05-12T05:03:54.774Z,89.40
2019-05-12T05:06:41.273Z,88.60
2019-05-12T05:09:25.977Z,87.40
2019-05-12T05:12:13.737Z,87.50
2019-05-12T05:14:57.784Z,87.50
2019-05-12T05:17:44.065Z,86.90
2019-05-12T05:20:29.342Z,86.80
2019-05-12T05:23:14.452Z,85.90
2019-05-12T05:25:59.524Z,85.20
2019-05-12T05:28:44.362Z,85.10
2019-05-12T05:31:29.157Z,83.30
2019-05-12T05:34:14.832Z,83.60
2019-05-12T05:37:01.678Z,82.90
2019-05-12T05:39:49.727Z,81.40
2019-05-12T05:42:35.599Z,81.80
2019-05-12T05:45:24.196Z,80.10
2019-05-12T05:48:09.951Z,80.00
2019-05-12T05:50:54.385Z,79.90
2019-05-12T05:53:39.673Z,79.40
2019-05-12T05:56:38.720Z,80.00
2019-05-12T05:59:11.449Z,80.40
2019-05-12T06:01:57.293Z,81.10
2019-05-12T06:04:45.500Z,81.20
2019-05-12T06:07:34.867Z,81.20
2019-05-12T06:10:17.673Z,81.60
2019-05-12T06:13:04.115Z,81.00
2019-05-12T06:15:49.378Z,79.10
2019-05-12T06:18:34.479Z,81.00
2019-05-12T06:21:19.525Z,80.40
2019-05-12T06:24:08.711Z,77.10
2019-05-12T06:26:57.743Z,79.50
2019-05-12T06:29:38.805Z,80.20
2019-05-12T06:32:25.074Z,78.70
2019-05-12T06:35:10.647Z,78.50
2019-05-12T06:38:01.063Z,75.60
2019-05-12T06:40:45.332Z,73.70
2019-05-12T06:43:35.073Z,75.30
2019-05-12T06:46:21.028Z,74.50
2019-05-12T06:49:10.194Z,76.50
2019-05-12T06:51:53.465Z,72.80
2019-05-12T06:54:44.589Z,71.70
2019-05-12T06:57:28.580Z,73.60
2019-05-12T07:00:14.449Z,73.20
2019-05-12T07:02:58.685Z,74.30
2019-05-12T07:05:45.315Z,73.90
2019-05-12T07:08:32.143Z,73.50
2019-05-12T07:11:17.238Z,73.40
2019-05-12T07:14:07.980Z,73.90
2019-05-12T07:16:53.346Z,72.00
2019-05-12T07:19:38.306Z,71.90
2019-05-12T07:22:25.797Z,69.10
2019-05-12T07:25:09.922Z,69.60
2019-05-12T07:28:00.699Z,68.60
2019-05-12T07:30:44.088Z,72.10
2019-05-12T07:33:35.183Z,70.10
2019-05-12T07:36:17.270Z,70.70
2019-05-12T07:39:08.261Z,69.40
2019-05-12T07:41:54.938Z,70.90
2019-05-12T07:44:44.036Z,70.50
2019-05-12T07:47:29.369Z,70.10
2019-05-12T07:50:18.288Z,70.80
2019-05-12T07:53:04.095Z,71.60
2019-05-12T07:55:49.581Z,70.80
2019-05-12T07:58:34.851Z,70.30
2019-05-12T08:01:19.624Z,70.70
2019-05-12T08:04:04.651Z,70.00
2019-05-12T08:06:49.693Z,68.80
2019-05-12T08:09:36.328Z,68.40
2019-05-12T08:12:23.733Z,69.00
2019-05-12T08:15:09.816Z,71.10
2019-05-12T08:17:59.272Z,69.40
2019-05-12T08:20:43.574Z,70.50
2019-05-12T08:23:28.581Z,70.10
2019-05-12T08:26:18.257Z,69.20
2019-05-12T08:29:00.211Z,67.20
2019-05-12T08:31:45.045Z,67.10
2019-05-12T08:34:29.943Z,68.00
2019-05-12T08:37:14.640Z,68.90
2019-05-12T08:40:03.312Z,67.80
2019-05-12T08:42:46.453Z,67.80
2019-05-12T08:45:36.767Z,68.90
2019-05-12T08:48:21.683Z,68.50
2019-05-12T08:51:13.933Z,65.60
2019-05-12T08:53:53.967Z,67.20
2019-05-12T08:56:39.879Z,65.50
2019-05-12T08:59:27.324Z,65.30
2019-05-12T09:02:13.759Z,65.00
2019-05-12T09:04:59.521Z,66.50
2019-05-12T09:07:44.405Z,65.60
2019-05-12T09:10:29.364Z,64.90
2019-05-12T09:13:14.716Z,63.90
2019-05-12T09:15:59.434Z,63.90
2019-05-12T09:18:44.480Z,63.60
2019-05-12T09:21:34.364Z,66.20
2019-05-12T09:24:21.869Z,64.00
2019-05-12T09:27:06.916Z,65.10
2019-05-12T09:29:49.565Z,64.40
2019-05-12T09:32:39.244Z,64.10
2019-05-12T09:35:23.483Z,64.80
2019-05-12T09:38:11.333Z,62.80
2019-05-12T09:41:00.767Z,64.40
2019-05-12T09:43:46.254Z,64.30
2019-05-12T09:46:33.465Z,64.30
2019-05-12T09:49:15.570Z,62.50
2019-05-12T09:52:00.504Z,65.20
2019-05-12T09:54:45.221Z,64.90
2019-05-12T09:57:39.876Z,61.40
2019-05-12T10:00:18.490Z,61.90
2019-05-12T10:03:04.827Z,63.50
2019-05-12T10:05:50.649Z,61.80
2019-05-12T10:08:36.152Z,64.30
2019-05-12T10:11:23.714Z,63.50
2019-05-12T10:14:10.920Z,61.40
2019-05-12T10:16:55.548Z,64.00
2019-05-12T10:19:40.333Z,60.10
2019-05-12T10:22:30.012Z,61.30
2019-05-12T10:25:14.644Z,62.80
2019-05-12T10:28:02.999Z,63.90
2019-05-12T10:30:55.273Z,58.50
2019-05-12T10:33:36.361Z,61.00
2019-05-12T10:36:21.652Z,55.70
2019-05-12T10:39:06.434Z,55.30
2019-05-12T10:41:54.766Z,59.00
2019-05-12T10:44:40.961Z,57.60
2019-05-12T10:47:26.116Z,59.10
2019-05-12T10:50:14.230Z,58.20
2019-05-12T10:52:59.284Z,58.40
2019-05-12T10:55:44.229Z,58.10
2019-05-12T10:58:28.998Z,58.40
2019-05-12T11:01:14.239Z,61.20
2019-05-12T11:03:59.153Z,60.80
2019-05-12T11:06:48.368Z,59.70
2019-05-12T11:09:33.863Z,58.30
2019-05-12T11:12:19.039Z,59.10
2019-05-12T11:15:13.863Z,57.70
2019-05-12T11:18:01.156Z,59.10
2019-05-12T11:20:46.000Z,57.40
2019-05-12T11:23:30.776Z,56.90
2019-05-12T11:26:15.589Z,56.70
2019-05-12T11:29:00.535Z,56.20
2019-05-12T11:31:45.407Z,58.00
2019-05-12T11:34:30.646Z,55.70
2019-05-12T11:37:16.140Z,54.30
2019-05-12T11:40:00.954Z,51.70
2019-05-12T11:42:53.982Z,50.00
2019-05-12T11:45:33.652Z,48.30
2019-05-12T11:48:18.758Z,48.30
2019-05-12T11:51:04.030Z,50.90
2019-05-12T11:53:48.885Z,50.00
2019-05-12T11:56:33.965Z,50.10
2019-05-12T11:59:19.222Z,49.60
2019-05-12T12:02:04.461Z,49.30
2019-05-12T12:04:49.625Z,49.90
2019-05-12T12:07:38.852Z,50.10
2019-05-12T12:10:23.300Z,52.50
2019-05-12T12:13:08.052Z,45.60
2019-05-12T12:15:52.858Z,44.10
2019-05-12T12:18:38.044Z,41.50
2019-05-12T12:21:23.662Z,40.60
2019-05-12T12:24:09.269Z,42.20
2019-05-12T12:26:54.149Z,41.20
2019-05-12T12:29:39.117Z,41.80
2019-05-12T12:32:23.812Z,41.90
2019-05-12T12:35:11.932Z,37.60
2019-05-12T12:37:56.067Z,39.00
2019-05-12T12:40:40.861Z,36.20
2019-05-12T12:43:26.023Z,36.70
2019-05-12T12:46:17.856Z,36.70
2019-05-12T12:49:05.213Z,36.80
2019-05-12T12:51:46.994Z,34.50
2019-05-12T12:54:33.249Z,35.60
2019-05-12T12:57:19.246Z,33.00
2019-05-12T13:00:05.742Z,36.90
2019-05-12T13:02:50.966Z,37.70
2019-05-12T13:05:35.769Z,33.20
2019-05-12T13:08:22.361Z,34.00
2019-05-12T13:11:07.781Z,36.50
2019-05-12T13:13:53.572Z,33.50
2019-05-12T13:16:38.668Z,33.30
2019-05-12T13:19:23.871Z,34.70
2019-05-12T13:22:13.788Z,33.20
2019-05-12T13:24:58.167Z,32.70
2019-05-12T13:27:42.377Z,31.90
2019-05-12T13:30:27.146Z,30.80
2019-05-12T13:33:15.075Z,29.90
2019-05-12T13:35:58.866Z,32.10
2019-05-12T13:38:44.314Z,31.90
2019-05-12T13:41:29.814Z,33.60
2019-05-12T13:44:15.187Z,35.90
2019-05-12T13:47:00.407Z,35.20
2019-05-12T13:49:47.567Z,32.50
2019-05-12T13:52:33.237Z,32.90
2019-05-12T13:55:18.401Z,32.80
2019-05-12T13:58:04.158Z,33.10
2019-05-12T14:01:08.054Z,31.30
2019-05-12T14:03:40.052Z,31.30
2019-05-12T14:06:31.796Z,32.00
2019-05-12T14:09:10.121Z,33.90
2019-05-12T14:11:54.905Z,34.40
2019-05-12T14:14:40.223Z,30.10
2019-05-12T14:17:25.150Z,32.90
2019-05-12T14:20:15.817Z,34.60
2019-05-12T14:22:57.853Z,31.90
2019-05-12T14:25:43.778Z,31.10
2019-05-12T14:28:29.013Z,30.70
2019-05-12T14:31:26.422Z,30.00
2019-05-12T14:34:00.665Z,30.40
2019-05-12T14:36:45.412Z,30.00
2019-05-12T14:39:30.179Z,28.10
2019-05-12T14:42:15.694Z,30.20
2019-05-12T14:45:01.155Z,29.50
2019-05-12T14:47:46.157Z,29.90
2019-05-12T14:50:30.852Z,29.40
2019-05-12T14:53:15.875Z,29.50
2019-05-12T14:56:00.594Z,29.90
2019-05-12T14:58:50.340Z,31.40
2019-05-12T15:01:51.764Z,33.90
2019-05-12T15:04:27.886Z,35.60
2019-05-12T15:07:09.999Z,33.50
2019-05-12T15:10:01.975Z,32.20
2019-05-12T15:12:40.249Z,31.60
2019-05-12T15:15:25.041Z,33.80
2019-05-12T15:18:12.873Z,32.00
2019-05-12T15:20:56.727Z,31.80
2019-05-12T15:23:44.026Z,31.60
2019-05-12T15:26:28.845Z,32.50
2019-05-12T15:29:19.733Z,34.70
2019-05-12T15:32:00.370Z,33.10
2019-05-12T15:34:45.209Z,32.60
2019-05-12T15:37:34.947Z,31.70
2019-05-12T15:40:18.062Z,32.00
2019-05-12T15:43:05.330Z,31.20
2019-05-12T15:45:57.381Z,32.00
2019-05-12T15:48:36.904Z,31.80
2019-05-12T15:51:22.115Z,30.90
2019-05-12T15:54:11.669Z,29.20
2019-05-12T15:56:55.733Z,29.30
2019-05-12T15:59:43.397Z,29.30
2019-05-12T16:02:28.490Z,32.60
2019-05-12T16:05:14.578Z,32.80
2019-05-12T16:07:59.735Z,31.50
2019-05-12T16:10:44.907Z,31.40
2019-05-12T16:13:29.667Z,31.20
2019-05-12T16:16:14.748Z,32.70
2019-05-12T16:18:59.933Z,31.60
2019-05-12T16:21:45.608Z,31.60
2019-05-12T16:24:31.272Z,32.70
2019-05-12T16:27:16.348Z,35.20
2019-05-12T16:30:01.226Z,35.60
2019-05-12T16:32:47.840Z,36.90
2019-05-12T16:35:34.583Z,39.00
2019-05-12T16:38:20.128Z,36.70
2019-05-12T16:41:05.346Z,32.90
2019-05-12T16:43:50.169Z,34.00
2019-05-12T16:46:35.358Z,33.50
2019-05-12T16:49:25.018Z,33.70
2019-05-12T16:52:09.217Z,33.80
2019-05-12T16:54:54.195Z,33.10
2019-05-12T16:57:50.023Z,33.40
2019-05-12T17:00:26.345Z,33.40
2019-05-12T17:03:14.245Z,33.40
2019-05-12T17:05:58.455Z,32.70
2019-05-12T17:08:45.130Z,33.60
2019-05-12T17:11:31.274Z,33.30
2019-05-12T17:14:16.586Z,33.20
2019-05-12T17:17:03.778Z,34.70
2019-05-12T17:19:48.406Z,36.10
2019-05-12T17:22:33.317Z,35.90
2019-05-12T17:25:18.215Z,35.00
2019-05-12T17:28:05.680Z,36.90
2019-05-12T17:30:50.317Z,38.90
2019-05-12T17:33:35.458Z,38.60
2019-05-12T17:36:20.362Z,39.30
2019-05-12T17:39:06.736Z,39.20
2019-05-12T17:41:51.762Z,40.10
2019-05-12T17:44:38.940Z,39.90
2019-05-12T17:47:25.817Z,43.30
2019-05-12T17:50:10.809Z,42.80
2019-05-12T17:52:59.325Z,42.60
2019-05-12T17:55:50.519Z,40.00
2019-05-12T17:58:29.751Z,38.80
2019-05-12T18:01:15.946Z,37.70
2019-05-12T18:04:00.728Z,39.80
2019-05-12T18:06:45.532Z,38.00
2019-05-12T18:09:30.924Z,39.00
2019-05-12T18:12:16.214Z,41.50
2019-05-12T18:15:01.111Z,40.50
2019-05-12T18:17:49.784Z,41.40
2019-05-12T18:20:40.063Z,42.30
2019-05-12T18:23:26.287Z,43.80
2019-05-12T18:26:11.426Z,43.90
2019-05-12T18:28:54.808Z,44.00
2019-05-12T18:31:40.747Z,45.60
2019-05-12T18:34:25.983Z,46.50
2019-05-12T18:37:13.431Z,47.30
2019-05-12T18:39:58.136Z,46.20
2019-05-12T18:42:43.093Z,47.60
2019-05-12T18:45:28.420Z,47.30
2019-05-12T18:48:18.173Z,47.20
2019-05-12T18:51:04.961Z,48.10
2019-05-12T18:53:47.370Z,49.10
2019-05-12T18:56:33.618Z,50.00
2019-05-12T18:59:18.847Z,50.30
2019-05-12T19:02:04.057Z,50.30
2019-05-12T19:04:49.171Z,51.50
2019-05-12T19:07:39.584Z,52.00
2019-05-12T19:10:20.905Z,55.10
2019-05-12T19:13:06.745Z,55.80
2019-05-12T19:15:52.787Z,58.30
2019-05-12T19:18:38.943Z,58.40
2019-05-12T19:21:24.081Z,57.70
2019-05-12T19:24:17.497Z,58.70
2019-05-12T19:26:55.762Z,58.60
2019-05-12T19:29:46.642Z,58.80
2019-05-12T19:32:28.339Z,63.00
2019-05-12T19:35:18.649Z,63.40
2019-05-12T19:38:02.095Z,65.00
2019-05-12T19:40:55.260Z,65.20
2019-05-12T19:43:34.069Z,68.10
2019-05-12T19:46:19.546Z,67.40
2019-05-12T19:49:04.579Z,68.40
2019-05-12T19:51:49.593Z,69.40
2019-05-12T19:54:36.853Z,69.30
2019-05-12T19:57:21.940Z,69.50
2019-05-12T20:00:08.820Z,69.80
2019-05-12T20:02:53.890Z,71.80
2019-05-12T20:05:39.007Z,73.80
2019-05-12T20:08:23.676Z,73.60
2019-05-12T20:11:08.445Z,73.70
2019-05-12T20:13:54.015Z,75.50
2019-05-12T20:16:39.041Z,75.30
2019-05-12T20:19:25.304Z,74.40
2019-05-12T20:22:10.775Z,73.90
2019-05-12T20:24:56.001Z,73.90
2019-05-12T20:27:40.747Z,73.70
2019-05-12T20:30:28.077Z,74.30
2019-05-12T20:33:13.688Z,74.40
2019-05-12T20:35:58.822Z,75.10
2019-05-12T20:38:44.508Z,75.30
2019-05-12T20:41:29.358Z,75.90
2019-05-12T20:44:17.352Z,77.60
2019-05-12T20:47:06.005Z,78.30
2019-05-12T20:49:51.201Z,77.70
2019-05-12T20:52:39.492Z,77.80
2019-05-12T20:55:23.433Z,77.40
2019-05-12T20:58:08.511Z,78.10
2019-05-12T21:00:53.831Z,79.00
2019-05-12T21:03:39.732Z,78.80
2019-05-12T21:06:25.870Z,79.00
2019-05-12T21:09:14.406Z,80.50
2019-05-12T21:11:59.680Z,79.20
2019-05-12T21:14:51.685Z,79.00
2019-05-12T21:17:40.539Z,78.70
2019-05-12T21:20:18.322Z,78.70
2019-05-12T21:23:03.161Z,78.70
2019-05-12T21:25:52.106Z,79.40
2019-05-12T21:28:37.276Z,79.30
2019-05-12T21:31:29.010Z,80.30
2019-05-12T21:34:15.108Z,81.40
2019-05-12T21:36:58.856Z,82.30
2019-05-12T21:39:46.769Z,80.70
2019-05-12T21:42:29.170Z,80.00
2019-05-12T21:45:14.872Z,80.00
2019-05-12T21:47:59.817Z,80.90
2019-05-12T21:50:44.705Z,80.70
2019-05-12T21:53:29.532Z,82.20
2019-05-12T21:56:14.528Z,81.40
2019-05-12T21:58:59.397Z,80.80
2019-05-12T22:01:45.908Z,81.40
2019-05-12T22:04:32.961Z,82.00
2019-05-12T22:07:17.900Z,83.30
2019-05-12T22:10:04.956Z,82.80
2019-05-12T22:12:50.039Z,82.20
2019-05-12T22:15:35.027Z,83.00
2019-05-12T22:18:19.990Z,81.90
2019-05-12T22:21:06.913Z,82.10
2019-05-12T22:23:53.731Z,82.80
2019-05-12T22:26:40.328Z,82.40
2019-05-12T22:29:29.515Z,81.00
2019-05-12T22:32:13.770Z,81.90
2019-05-12T22:34:58.540Z,81.20
2019-05-12T22:37:45.086Z,81.90
2019-05-12T22:40:30.099Z,82.40
2019-05-12T22:43:14.884Z,83.20
2019-05-12T22:46:23.368Z,81.80
2019-05-12T22:49:10.512Z,81.70
2019-05-12T22:51:54.564Z,82.00
2019-05-12T22:54:45.689Z,82.00
2019-05-12T22:57:29.255Z,82.20
2019-05-12T23:00:19.207Z,81.60
2019-05-12T23:03:11.548Z,82.10
2019-05-12T23:05:56.467Z,83.30
2019-05-12T23:08:38.834Z,82.80
2019-05-12T23:11:31.947Z,84.00
2019-05-12T23:14:12.523Z,83.50
2019-05-12T23:17:00.221Z,82.40
2019-05-12T23:19:51.379Z,82.00
2019-05-12T23:22:34.992Z,81.70
2019-05-12T23:25:21.494Z,82.50
2019-05-12T23:28:10.280Z,81.80
2019-05-12T23:30:53.559Z,81.90
2019-05-12T23:33:38.685Z,82.70
2019-05-12T23:36:35.277Z,83.00
2019-05-12T23:39:10.348Z,83.70
2019-05-12T23:41:55.109Z,84.40
2019-05-12T23:44:39.835Z,84.00
2019-05-12T23:47:24.753Z,84.70
2019-05-12T23:50:09.831Z,84.10
2019-05-12T23:52:55.020Z,84.00
2019-05-12T23:55:39.833Z,83.80
2019-05-12T23:58:24.681Z,83.90
